createdAt,value
2018-08-13T00:00:59.580Z,18.73
2018-08-13T00:03:27.864Z,18.73
2018-08-13T00:05:56.179Z,18.76
2018-08-13T00:08:24.479Z,18.74
2018-08-13T00:10:52.781Z,18.78
2018-08-13T00:13:21.064Z,18.83
2018-08-13T00:15:49.413Z,18.88
2018-08-13T00:18:17.669Z,18.88
2018-08-13T00:20:45.967Z,18.81
2018-08-13T00:23:14.225Z,18.71
2018-08-13T00:25:42.520Z,18.77
2018-08-13T00:28:11.285Z,18.85
2018-08-13T00:30:40.103Z,18.88
2018-08-13T00:33:09.672Z,18.82
2018-08-13T00:35:37.982Z,18.85
2018-08-13T00:38:06.537Z,18.93
2018-08-13T00:40:34.909Z,18.94
2018-08-13T00:43:03.273Z,18.96
2018-08-13T00:45:32.598Z,19.05
2018-08-13T00:48:00.917Z,19.05
2018-08-13T00:50:30.298Z,18.99
2018-08-13T00:52:58.549Z,19.00
2018-08-13T00:55:26.829Z,18.98
2018-08-13T00:57:55.105Z,18.88
2018-08-13T01:00:23.599Z,18.88
2018-08-13T01:02:52.288Z,18.86
2018-08-13T01:05:22.073Z,18.83
2018-08-13T01:07:50.699Z,18.76
2018-08-13T01:10:20.361Z,18.65
2018-08-13T01:12:48.710Z,18.66
2018-08-13T01:15:18.502Z,18.69
2018-08-13T01:17:48.085Z,18.67
2018-08-13T01:20:19.187Z,18.59
2018-08-13T01:22:47.548Z,18.64
2018-08-13T01:25:17.389Z,18.63
2018-08-13T01:27:46.803Z,18.57
2018-08-13T01:30:17.456Z,18.54
2018-08-13T01:32:46.857Z,18.51
2018-08-13T01:35:15.133Z,18.46
2018-08-13T01:37:43.454Z,18.49
2018-08-13T01:40:12.426Z,18.50
2018-08-13T01:42:40.753Z,18.53
2018-08-13T01:45:11.580Z,18.49
2018-08-13T01:47:40.718Z,18.49
2018-08-13T01:50:10.597Z,18.50
2018-08-13T01:52:40.228Z,18.51
2018-08-13T01:55:10.630Z,18.48
2018-08-13T01:57:39.033Z,18.41
2018-08-13T02:00:16.701Z,18.36
2018-08-13T02:02:45.042Z,18.45
2018-08-13T02:05:13.305Z,18.49
2018-08-13T02:07:41.949Z,18.48
2018-08-13T02:10:12.276Z,18.39
2018-08-13T02:12:40.996Z,18.43
2018-08-13T02:15:09.438Z,18.37
2018-08-13T02:17:37.748Z,18.43
2018-08-13T02:20:07.256Z,18.40
2018-08-13T02:22:35.672Z,18.40
2018-08-13T02:25:04.601Z,18.36
2018-08-13T02:27:32.882Z,18.33
2018-08-13T02:30:01.198Z,18.38
2018-08-13T02:32:29.496Z,18.40
2018-08-13T02:34:57.777Z,18.36
2018-08-13T02:37:32.308Z,18.36
2018-08-13T02:40:00.652Z,18.27
2018-08-13T02:42:29.114Z,18.29
2018-08-13T02:44:57.393Z,18.35
2018-08-13T02:47:25.653Z,18.45
2018-08-13T02:49:54.957Z,18.46
2018-08-13T02:52:23.228Z,18.45
2018-08-13T02:54:51.509Z,18.45
2018-08-13T02:57:19.773Z,18.34
2018-08-13T02:59:48.057Z,18.41
2018-08-13T03:02:18.364Z,18.39
2018-08-13T03:04:46.706Z,18.42
2018-08-13T03:07:14.913Z,18.37
2018-08-13T03:09:43.185Z,18.35
2018-08-13T03:12:11.505Z,18.33
2018-08-13T03:14:39.806Z,18.24
2018-08-13T03:17:09.447Z,18.30
2018-08-13T03:19:37.709Z,18.29
2018-08-13T03:22:06.017Z,18.29
2018-08-13T03:24:34.260Z,18.30
2018-08-13T03:27:03.636Z,18.31
2018-08-13T03:29:31.922Z,18.30
2018-08-13T03:32:00.209Z,18.36
2018-08-13T03:34:28.472Z,18.36
2018-08-13T03:36:56.763Z,18.36
2018-08-13T03:39:25.073Z,18.37
2018-08-13T03:41:53.356Z,18.39
2018-08-13T03:44:21.621Z,18.39
2018-08-13T03:46:49.926Z,18.47
2018-08-13T03:49:18.169Z,18.50
2018-08-13T03:51:47.553Z,18.44
2018-08-13T03:54:15.810Z,18.28
2018-08-13T03:56:44.190Z,18.27
2018-08-13T03:59:12.492Z,18.27
2018-08-13T04:01:40.804Z,18.19
2018-08-13T04:04:09.111Z,18.17
2018-08-13T04:06:37.349Z,18.21
2018-08-13T04:09:08.328Z,18.15
2018-08-13T04:11:37.027Z,18.11
2018-08-13T04:14:06.245Z,18.12
2018-08-13T04:16:34.488Z,18.11
2018-08-13T04:19:03.274Z,18.10
2018-08-13T04:21:31.527Z,18.10
2018-08-13T04:23:59.837Z,18.14
2018-08-13T04:26:28.109Z,18.10
2018-08-13T04:28:56.392Z,18.20
2018-08-13T04:31:24.652Z,18.12
2018-08-13T04:33:52.925Z,18.13
2018-08-13T04:36:21.204Z,18.22
2018-08-13T04:38:49.461Z,18.34
2018-08-13T04:41:17.749Z,18.36
2018-08-13T04:43:46.049Z,18.48
2018-08-13T04:46:14.296Z,18.40
2018-08-13T04:48:42.577Z,18.44
2018-08-13T04:51:10.828Z,18.55
2018-08-13T04:53:39.113Z,18.65
2018-08-13T04:56:07.382Z,18.74
2018-08-13T04:58:35.672Z,18.83
2018-08-13T05:01:03.981Z,18.78
2018-08-13T05:03:32.296Z,18.82
2018-08-13T05:06:00.545Z,18.82
2018-08-13T05:08:28.811Z,18.93
2018-08-13T05:10:57.077Z,19.06
2018-08-13T05:13:25.336Z,19.10
2018-08-13T05:15:53.669Z,19.14
2018-08-13T05:18:22.312Z,19.18
2018-08-13T05:20:50.604Z,19.18
2018-08-13T05:23:18.940Z,19.23
2018-08-13T05:25:47.269Z,19.27
2018-08-13T05:28:15.620Z,19.28
2018-08-13T05:30:43.917Z,19.29
2018-08-13T05:33:12.200Z,19.18
2018-08-13T05:35:40.489Z,19.23
2018-08-13T05:38:09.756Z,19.35
2018-08-13T05:40:38.077Z,19.36
2018-08-13T05:43:06.632Z,19.42
2018-08-13T05:45:34.973Z,19.40
2018-08-13T05:48:03.388Z,19.48
2018-08-13T05:50:34.172Z,19.55
2018-08-13T05:53:02.540Z,19.49
2018-08-13T05:55:30.753Z,19.50
2018-08-13T05:57:59.473Z,19.44
2018-08-13T06:00:27.721Z,19.50
2018-08-13T06:02:56.070Z,19.51
2018-08-13T06:05:24.293Z,19.50
2018-08-13T06:07:52.595Z,19.49
2018-08-13T06:10:20.904Z,19.57
2018-08-13T06:12:49.192Z,19.53
2018-08-13T06:15:17.457Z,19.58
2018-08-13T06:17:45.717Z,19.65
2018-08-13T06:20:14.038Z,19.64
2018-08-13T06:22:43.784Z,19.69
2018-08-13T06:25:12.972Z,19.75
2018-08-13T06:27:41.265Z,19.77
2018-08-13T06:30:12.084Z,19.76
2018-08-13T06:32:41.222Z,19.88
2018-08-13T06:35:09.821Z,19.96
2018-08-13T06:37:38.084Z,19.99
2018-08-13T06:40:06.997Z,19.90
2018-08-13T06:42:35.248Z,20.05
2018-08-13T06:45:03.765Z,20.12
2018-08-13T06:47:32.025Z,20.24
2018-08-13T06:50:00.370Z,20.30
2018-08-13T06:52:28.625Z,20.35
2018-08-13T06:54:56.913Z,20.46
2018-08-13T06:57:25.212Z,20.54
2018-08-13T06:59:53.512Z,20.69
2018-08-13T07:02:21.821Z,20.89
2018-08-13T07:04:50.116Z,21.02
2018-08-13T07:07:18.453Z,21.15
2018-08-13T07:09:46.757Z,21.31
2018-08-13T07:12:15.073Z,21.48
2018-08-13T07:14:43.441Z,21.51
2018-08-13T07:17:11.736Z,21.50
2018-08-13T07:19:39.969Z,21.34
2018-08-13T07:22:08.298Z,21.31
2018-08-13T07:24:37.026Z,21.33
2018-08-13T07:27:05.317Z,21.42
2018-08-13T07:29:33.564Z,21.57
2018-08-13T07:32:01.853Z,21.62
2018-08-13T07:34:30.108Z,21.45
2018-08-13T07:36:58.393Z,21.50
2018-08-13T07:39:26.742Z,21.47
2018-08-13T07:41:54.997Z,21.33
2018-08-13T07:44:23.253Z,21.23
2018-08-13T07:46:52.612Z,21.31
2018-08-13T07:49:20.877Z,21.11
2018-08-13T07:51:49.220Z,21.35
2018-08-13T07:54:17.405Z,21.21
2018-08-13T07:56:45.682Z,21.50
2018-08-13T07:59:13.940Z,21.48
2018-08-13T08:01:42.193Z,21.67
2018-08-13T08:04:10.492Z,21.77
2018-08-13T08:06:39.941Z,21.77
2018-08-13T08:09:10.727Z,21.92
2018-08-13T08:11:39.820Z,22.02
2018-08-13T08:14:08.592Z,21.89
2018-08-13T08:16:36.842Z,21.69
2018-08-13T08:19:05.117Z,21.90
2018-08-13T08:21:33.397Z,21.93
2018-08-13T08:24:02.110Z,22.07
2018-08-13T08:26:30.709Z,21.98
2018-08-13T08:28:59.003Z,22.16
2018-08-13T08:31:27.325Z,22.40
2018-08-13T08:33:55.641Z,22.51
2018-08-13T08:36:23.974Z,22.91
2018-08-13T08:38:52.552Z,22.99
2018-08-13T08:41:20.877Z,23.18
2018-08-13T08:43:49.130Z,23.38
2018-08-13T08:46:17.417Z,23.36
2018-08-13T08:48:45.661Z,23.44
2018-08-13T08:51:14.061Z,23.43
2018-08-13T08:53:42.420Z,23.71
2018-08-13T08:56:10.589Z,23.67
2018-08-13T08:58:38.868Z,23.93
2018-08-13T09:01:07.141Z,24.13
2018-08-13T09:03:35.543Z,23.61
2018-08-13T09:06:04.215Z,23.82
2018-08-13T09:08:32.410Z,23.67
2018-08-13T09:11:00.676Z,24.03
2018-08-13T09:13:28.949Z,24.26
2018-08-13T09:15:57.246Z,24.73
2018-08-13T09:18:36.689Z,24.92
2018-08-13T09:21:16.245Z,24.86
2018-08-13T09:23:55.942Z,25.29
2018-08-13T09:26:35.632Z,24.78
2018-08-13T09:29:15.105Z,25.11
2018-08-13T09:32:27.223Z,25.38
2018-08-13T09:35:17.150Z,25.35
2018-08-13T09:37:45.546Z,25.31
2018-08-13T09:40:13.888Z,25.50
2018-08-13T09:42:42.252Z,25.42
2018-08-13T09:45:10.517Z,25.31
2018-08-13T09:47:39.467Z,25.96
2018-08-13T09:50:10.177Z,25.80
2018-08-13T09:52:38.481Z,26.40
2018-08-13T09:55:07.960Z,26.74
2018-08-13T09:57:36.249Z,27.10
2018-08-13T10:00:07.169Z,26.76
2018-08-13T10:02:35.441Z,26.95
2018-08-13T10:05:03.763Z,27.07
2018-08-13T10:07:32.041Z,26.72
2018-08-13T10:10:00.325Z,26.66
2018-08-13T10:12:28.581Z,26.84
2018-08-13T10:14:56.960Z,26.73
2018-08-13T10:17:25.287Z,26.84
2018-08-13T10:19:53.584Z,26.23
2018-08-13T10:22:22.046Z,26.12
2018-08-13T10:24:50.344Z,26.05
2018-08-13T10:27:18.617Z,25.88
2018-08-13T10:29:47.002Z,26.05
2018-08-13T10:32:15.246Z,25.99
2018-08-13T10:34:44.589Z,26.02
2018-08-13T10:37:12.925Z,26.04
2018-08-13T10:39:41.206Z,26.10
2018-08-13T10:42:09.502Z,26.02
2018-08-13T10:44:37.797Z,26.10
2018-08-13T10:47:06.077Z,26.05
2018-08-13T10:49:34.397Z,25.91
2018-08-13T10:52:02.645Z,26.00
2018-08-13T10:54:30.912Z,25.71
2018-08-13T10:56:59.204Z,25.70
2018-08-13T10:59:27.454Z,25.72
2018-08-13T11:01:55.742Z,25.73
2018-08-13T11:04:24.024Z,26.03
2018-08-13T11:06:52.322Z,26.13
2018-08-13T11:09:20.564Z,26.00
2018-08-13T11:11:48.876Z,25.86
2018-08-13T11:14:17.153Z,25.99
2018-08-13T11:16:45.455Z,25.95
2018-08-13T11:19:13.708Z,25.96
2018-08-13T11:21:42.253Z,25.61
2018-08-13T11:24:10.493Z,25.77
2018-08-13T11:26:38.741Z,25.80
2018-08-13T11:29:08.109Z,25.97
2018-08-13T11:31:36.419Z,26.08
2018-08-13T11:34:04.705Z,26.23
2018-08-13T11:36:32.969Z,26.11
2018-08-13T11:39:01.282Z,26.32
2018-08-13T11:41:30.618Z,26.46
2018-08-13T11:43:58.897Z,26.75
2018-08-13T11:46:27.300Z,26.92
2018-08-13T11:48:55.585Z,27.23
2018-08-13T11:51:23.885Z,27.04
2018-08-13T11:53:52.168Z,26.93
2018-08-13T11:56:20.587Z,27.14
2018-08-13T11:58:48.977Z,27.45
2018-08-13T12:01:17.272Z,27.67
2018-08-13T12:03:45.612Z,27.74
2018-08-13T12:06:13.857Z,27.83
2018-08-13T12:08:42.193Z,27.76
2018-08-13T12:11:10.525Z,27.42
2018-08-13T12:13:38.820Z,27.29
2018-08-13T12:16:07.229Z,27.40
2018-08-13T12:18:35.495Z,27.77
2018-08-13T12:21:03.777Z,27.88
2018-08-13T12:23:32.021Z,27.53
2018-08-13T12:26:00.309Z,28.10
2018-08-13T12:28:28.548Z,27.80
2018-08-13T12:30:56.958Z,27.50
2018-08-13T12:33:25.217Z,27.17
2018-08-13T12:35:53.509Z,26.91
2018-08-13T12:38:21.825Z,26.89
2018-08-13T12:40:50.121Z,26.92
2018-08-13T12:43:18.377Z,26.82
2018-08-13T12:45:46.790Z,26.65
2018-08-13T12:48:15.109Z,26.73
2018-08-13T12:50:43.421Z,26.61
2018-08-13T12:53:11.717Z,26.19
2018-08-13T12:55:40.134Z,26.06
2018-08-13T12:58:08.421Z,25.98
2018-08-13T13:00:36.758Z,25.94
2018-08-13T13:03:05.061Z,26.06
2018-08-13T13:05:33.449Z,26.06
2018-08-13T13:08:01.754Z,26.07
2018-08-13T13:10:30.044Z,26.07
2018-08-13T13:12:58.375Z,26.45
2018-08-13T13:15:26.625Z,26.70
2018-08-13T13:17:54.968Z,27.00
2018-08-13T13:20:23.880Z,27.38
2018-08-13T13:22:52.609Z,27.51
2018-08-13T13:25:21.244Z,27.33
2018-08-13T13:27:49.625Z,26.92
2018-08-13T13:30:18.293Z,26.94
2018-08-13T13:32:46.825Z,27.24
2018-08-13T13:35:16.436Z,27.18
2018-08-13T13:37:44.716Z,26.94
2018-08-13T13:40:15.690Z,26.77
2018-08-13T13:42:44.001Z,26.68
2018-08-13T13:45:12.782Z,26.86
2018-08-13T13:47:41.143Z,26.56
2018-08-13T13:50:13.983Z,26.73
2018-08-13T13:52:42.496Z,26.48
2018-08-13T13:55:12.180Z,26.35
2018-08-13T13:57:40.494Z,26.31
2018-08-13T14:00:15.405Z,25.93
2018-08-13T14:02:43.770Z,25.70
2018-08-13T14:05:12.082Z,25.58
2018-08-13T14:07:40.341Z,25.52
2018-08-13T14:10:14.159Z,25.22
2018-08-13T14:12:42.757Z,25.15
2018-08-13T14:15:13.129Z,25.15
2018-08-13T14:17:42.105Z,25.22
2018-08-13T14:20:11.135Z,25.15
2018-08-13T14:22:40.180Z,25.14
2018-08-13T14:25:10.313Z,25.25
2018-08-13T14:27:38.665Z,24.96
2018-08-13T14:30:11.048Z,24.91
2018-08-13T14:32:39.323Z,24.92
2018-08-13T14:35:07.697Z,25.06
2018-08-13T14:37:36.047Z,25.15
2018-08-13T14:40:04.677Z,25.16
2018-08-13T14:42:32.976Z,25.40
2018-08-13T14:45:01.247Z,24.78
2018-08-13T14:47:29.561Z,24.60
2018-08-13T14:49:57.851Z,24.44
2018-08-13T14:52:26.106Z,24.42
2018-08-13T14:54:57.813Z,24.41
2018-08-13T14:57:26.435Z,24.64
2018-08-13T14:59:54.789Z,24.40
2018-08-13T15:02:23.057Z,24.35
2018-08-13T15:04:51.334Z,24.46
2018-08-13T15:07:19.629Z,24.74
2018-08-13T15:09:47.945Z,24.52
2018-08-13T15:12:16.236Z,24.73
2018-08-13T15:14:44.545Z,24.72
2018-08-13T15:17:12.838Z,24.68
2018-08-13T15:19:48.461Z,24.87
2018-08-13T15:22:16.789Z,24.79
2018-08-13T15:24:45.029Z,24.66
2018-08-13T15:27:13.409Z,24.27
2018-08-13T15:29:41.581Z,24.46
2018-08-13T15:32:09.873Z,24.26
2018-08-13T15:34:38.125Z,24.02
2018-08-13T15:37:06.405Z,23.94
2018-08-13T15:39:34.660Z,24.02
2018-08-13T15:42:03.090Z,23.76
2018-08-13T15:44:31.502Z,23.61
2018-08-13T15:47:00.033Z,23.73
2018-08-13T15:49:28.285Z,23.84
2018-08-13T15:51:56.681Z,23.80
2018-08-13T15:54:24.993Z,23.94
2018-08-13T15:56:53.277Z,23.75
2018-08-13T15:59:22.596Z,23.54
2018-08-13T16:01:50.930Z,23.40
2018-08-13T16:04:20.209Z,23.39
2018-08-13T16:06:49.477Z,23.27
2018-08-13T16:09:17.793Z,23.11
2018-08-13T16:11:46.036Z,22.98
2018-08-13T16:14:14.349Z,22.91
2018-08-13T16:16:42.600Z,22.96
2018-08-13T16:19:10.902Z,22.97
2018-08-13T16:21:39.231Z,22.99
2018-08-13T16:24:07.549Z,23.09
2018-08-13T16:26:35.876Z,23.21
2018-08-13T16:29:04.169Z,23.24
2018-08-13T16:31:32.608Z,23.25
2018-08-13T16:34:00.888Z,23.30
2018-08-13T16:36:29.133Z,23.37
2018-08-13T16:38:57.408Z,23.48
2018-08-13T16:41:25.684Z,23.34
2018-08-13T16:43:54.117Z,23.28
2018-08-13T16:46:22.374Z,23.24
2018-08-13T16:48:50.665Z,23.11
2018-08-13T16:51:18.948Z,23.13
2018-08-13T16:53:47.262Z,23.17
2018-08-13T16:56:15.627Z,23.05
2018-08-13T16:58:43.923Z,22.98
2018-08-13T17:01:12.267Z,22.94
2018-08-13T17:03:40.606Z,22.99
2018-08-13T17:06:08.884Z,22.92
2018-08-13T17:08:37.202Z,22.92
2018-08-13T17:11:05.882Z,22.86
2018-08-13T17:13:34.204Z,22.88
2018-08-13T17:16:03.581Z,22.82
2018-08-13T17:18:32.053Z,22.87
2018-08-13T17:21:01.444Z,22.90
2018-08-13T17:23:29.697Z,22.93
2018-08-13T17:25:58.005Z,22.86
2018-08-13T17:28:26.251Z,22.88
2018-08-13T17:30:54.532Z,22.86
2018-08-13T17:33:22.809Z,22.88
2018-08-13T17:35:51.169Z,22.89
2018-08-13T17:38:19.439Z,22.87
2018-08-13T17:40:47.770Z,22.81
2018-08-13T17:43:16.341Z,22.80
2018-08-13T17:45:44.490Z,22.76
2018-08-13T17:48:12.753Z,22.86
2018-08-13T17:50:41.049Z,22.88
2018-08-13T17:53:10.257Z,22.89
2018-08-13T17:55:38.677Z,22.93
2018-08-13T17:58:08.052Z,22.86
2018-08-13T18:00:36.328Z,22.85
2018-08-13T18:03:04.590Z,22.88
2018-08-13T18:05:32.864Z,22.87
2018-08-13T18:08:01.112Z,22.85
2018-08-13T18:10:32.565Z,22.89
2018-08-13T18:13:02.549Z,22.90
2018-08-13T18:15:31.262Z,22.89
2018-08-13T18:17:59.597Z,22.89
2018-08-13T18:20:28.265Z,22.86
2018-08-13T18:22:56.601Z,22.78
2018-08-13T18:25:24.941Z,22.69
2018-08-13T18:27:53.564Z,22.62
2018-08-13T18:30:25.021Z,22.61
2018-08-13T18:32:53.748Z,22.53
2018-08-13T18:35:22.032Z,22.45
2018-08-13T18:37:50.321Z,22.40
2018-08-13T18:40:22.265Z,22.45
2018-08-13T18:42:50.835Z,22.47
2018-08-13T18:45:19.097Z,22.46
2018-08-13T18:47:48.177Z,22.44
2018-08-13T18:50:17.980Z,22.46
2018-08-13T18:52:46.649Z,22.40
2018-08-13T18:55:16.494Z,22.37
2018-08-13T18:57:44.990Z,22.33
2018-08-13T19:00:17.869Z,22.32
2018-08-13T19:02:46.159Z,22.33
2018-08-13T19:05:16.088Z,22.23
2018-08-13T19:07:45.217Z,22.24
2018-08-13T19:10:14.486Z,22.21
2018-08-13T19:12:42.758Z,22.24
2018-08-13T19:15:13.205Z,22.24
2018-08-13T19:17:41.505Z,22.29
2018-08-13T19:20:11.723Z,22.28
2018-08-13T19:22:40.044Z,22.29
2018-08-13T19:25:12.577Z,22.34
2018-08-13T19:27:41.116Z,22.20
2018-08-13T19:30:10.729Z,21.32
2018-08-13T19:32:38.996Z,20.41
2018-08-13T19:35:08.142Z,20.01
2018-08-13T19:37:36.393Z,20.07
2018-08-13T19:40:07.149Z,19.85
2018-08-13T19:42:35.502Z,19.84
2018-08-13T19:45:04.083Z,19.73
2018-08-13T19:47:32.339Z,19.67
2018-08-13T19:50:00.663Z,19.85
2018-08-13T19:52:28.938Z,19.81
2018-08-13T19:54:57.437Z,19.92
2018-08-13T19:57:25.723Z,19.93
2018-08-13T19:59:53.998Z,20.00
2018-08-13T20:02:22.289Z,19.91
2018-08-13T20:04:53.339Z,19.87
2018-08-13T20:07:21.693Z,19.82
2018-08-13T20:09:49.957Z,19.75
2018-08-13T20:12:18.361Z,19.94
2018-08-13T20:14:46.665Z,19.72
2018-08-13T20:17:14.976Z,19.62
2018-08-13T20:19:43.345Z,19.64
2018-08-13T20:22:15.087Z,19.72
2018-08-13T20:24:43.750Z,19.70
2018-08-13T20:27:12.097Z,19.65
2018-08-13T20:29:40.396Z,19.60
2018-08-13T20:32:09.440Z,19.61
2018-08-13T20:34:37.721Z,19.59
2018-08-13T20:37:06.108Z,19.60
2018-08-13T20:39:34.317Z,19.65
2018-08-13T20:42:02.613Z,19.63
2018-08-13T20:44:30.939Z,19.57
2018-08-13T20:46:59.241Z,19.50
2018-08-13T20:49:27.626Z,19.44
2018-08-13T20:51:55.851Z,19.47
2018-08-13T20:54:24.177Z,19.45
2018-08-13T20:56:52.447Z,19.40
2018-08-13T20:59:20.741Z,19.38
2018-08-13T21:01:49.006Z,19.43
2018-08-13T21:04:17.652Z,19.46
2018-08-13T21:06:45.932Z,19.43
2018-08-13T21:09:14.361Z,19.20
2018-08-13T21:11:42.549Z,19.24
2018-08-13T21:14:10.885Z,19.14
2018-08-13T21:16:39.165Z,18.93
2018-08-13T21:19:07.493Z,18.78
2018-08-13T21:21:35.769Z,18.63
2018-08-13T21:24:04.477Z,18.68
2018-08-13T21:26:32.746Z,18.71
2018-08-13T21:29:01.022Z,18.69
2018-08-13T21:31:29.322Z,18.47
2018-08-13T21:33:57.634Z,18.51
2018-08-13T21:36:25.958Z,18.53
2018-08-13T21:38:55.367Z,18.50
2018-08-13T21:41:24.242Z,18.42
2018-08-13T21:43:53.516Z,18.52
2018-08-13T21:46:21.839Z,18.50
2018-08-13T21:48:50.323Z,18.53
2018-08-13T21:51:18.641Z,18.51
2018-08-13T21:53:46.912Z,18.40
2018-08-13T21:56:15.349Z,18.44
2018-08-13T21:58:43.625Z,18.50
2018-08-13T22:01:17.254Z,18.45
2018-08-13T22:03:45.534Z,18.41
2018-08-13T22:06:13.872Z,18.28
2018-08-13T22:08:42.405Z,18.31
2018-08-13T22:11:11.309Z,18.24
2018-08-13T22:13:39.637Z,18.31
2018-08-13T22:16:07.933Z,18.36
2018-08-13T22:18:36.204Z,18.41
2018-08-13T22:21:06.021Z,18.49
2018-08-13T22:23:34.305Z,18.43
2018-08-13T22:26:02.633Z,18.46
2018-08-13T22:28:30.912Z,18.33
2018-08-13T22:30:59.440Z,18.41
2018-08-13T22:33:27.713Z,18.29
2018-08-13T22:35:55.993Z,18.42
2018-08-13T22:38:24.277Z,18.49
2018-08-13T22:40:52.605Z,18.53
2018-08-13T22:43:21.997Z,18.53
2018-08-13T22:45:50.250Z,18.52
2018-08-13T22:48:18.553Z,18.56
2018-08-13T22:50:46.862Z,18.62
2018-08-13T22:53:15.159Z,18.66
2018-08-13T22:55:43.425Z,18.60
2018-08-13T22:58:11.883Z,18.59
2018-08-13T23:00:40.219Z,18.48
2018-08-13T23:03:08.480Z,18.31
2018-08-13T23:05:36.765Z,18.29
2018-08-13T23:08:05.266Z,18.26
2018-08-13T23:10:33.549Z,18.09
2018-08-13T23:13:01.885Z,18.10
2018-08-13T23:15:30.204Z,17.96
2018-08-13T23:17:58.505Z,17.99
2018-08-13T23:20:28.601Z,18.06
2018-08-13T23:22:59.080Z,18.04
2018-08-13T23:25:28.009Z,18.19
2018-08-13T23:27:57.428Z,18.24
2018-08-13T23:30:25.769Z,18.25
2018-08-13T23:32:55.061Z,18.11
2018-08-13T23:35:24.069Z,18.24
2018-08-13T23:37:52.654Z,18.17
2018-08-13T23:40:20.999Z,18.10
2018-08-13T23:42:49.313Z,18.24
2018-08-13T23:45:20.929Z,18.16
2018-08-13T23:47:49.233Z,18.11
2018-08-13T23:50:19.596Z,18.13
2018-08-13T23:52:48.980Z,17.96
2018-08-13T23:55:32.633Z,18.16
2018-08-13T23:58:01.459Z,18.15
